sensor_id;sensor_type;location;lat;lon;timestamp;P1;durP1;ratioP1;P2;durP2;ratioP2
3953;SDS011;1991;48.682;9.030;2023-02-10T00:00:02;33.73;;;18.50;;
3953;SDS011;1991;48.682;9.030;2023-02-10T00:02:29;37.07;;;20.40;;
3953;SDS011;1991;48.682;9.030;2023-02-10T00:04:55;43.37;;;20.33;;
3953;SDS011;1991;48.682;9.030;2023-02-10T00:07:21;37.90;;;19.37;;
3953;SDS011;1991;48.682;9.030;2023-02-10T00:09:50;36.13;;;19.60;;
3953;SDS011;1991;48.682;9.030;2023-02-10T00:12:15;36.53;;;19.87;;
3953;SDS011;1991;48.682;9.030;2023-02-10T00:14:41;33.13;;;19.17;;
3953;SDS011;1991;48.682;9.030;2023-02-10T00:17:06;35.23;;;18.83;;
3953;SDS011;1991;48.682;9.030;2023-02-10T00:19:32;35.67;;;19.33;;
3953;SDS011;1991;48.682;9.030;2023-02-10T00:21:58;32.60;;;18.00;;
3953;SDS011;1991;48.682;9.030;2023-02-10T00:24:25;33.17;;;18.70;;
3953;SDS011;1991;48.682;9.030;2023-02-10T00:26:51;30.83;;;18.10;;
3953;SDS011;1991;48.682;9.030;2023-02-10T00:29:17;32.43;;;18.03;;
3953;SDS011;1991;48.682;9.030;2023-02-10T00:31:43;32.90;;;18.43;;
3953;SDS011;1991;48.682;9.030;2023-02-10T00:34:13;30.23;;;17.50;;
3953;SDS011;1991;48.682;9.030;2023-02-10T00:36:39;36.87;;;19.33;;
3953;SDS011;1991;48.682;9.030;2023-02-10T00:39:06;34.10;;;18.40;;
3953;SDS011;1991;48.682;9.030;2023-02-10T00:41:31;35.00;;;17.83;;
3953;SDS011;1991;48.682;9.030;2023-02-10T00:43:57;34.27;;;18.47;;
3953;SDS011;1991;48.682;9.030;2023-02-10T00:46:23;34.00;;;17.93;;
3953;SDS011;1991;48.682;9.030;2023-02-10T00:48:49;31.20;;;17.07;;
3953;SDS011;1991;48.682;9.030;2023-02-10T00:51:15;29.43;;;15.17;;
3953;SDS011;1991;48.682;9.030;2023-02-10T00:53:42;35.30;;;18.67;;
3953;SDS011;1991;48.682;9.030;2023-02-10T00:56:08;32.80;;;17.53;;
3953;SDS011;1991;48.682;9.030;2023-02-10T00:58:34;30.57;;;17.33;;
3953;SDS011;1991;48.682;9.030;2023-02-10T01:01:00;34.77;;;17.97;;
3953;SDS011;1991;48.682;9.030;2023-02-10T01:03:26;28.93;;;17.40;;
3953;SDS011;1991;48.682;9.030;2023-02-10T01:05:51;30.87;;;17.63;;
3953;SDS011;1991;48.682;9.030;2023-02-10T01:08:17;34.00;;;18.17;;
3953;SDS011;1991;48.682;9.030;2023-02-10T01:10:43;32.07;;;17.70;;
3953;SDS011;1991;48.682;9.030;2023-02-10T01:13:09;35.17;;;17.40;;
3953;SDS011;1991;48.682;9.030;2023-02-10T01:15:40;37.20;;;18.13;;
3953;SDS011;1991;48.682;9.030;2023-02-10T01:18:06;30.27;;;17.30;;
3953;SDS011;1991;48.682;9.030;2023-02-10T01:20:32;32.13;;;17.23;;
3953;SDS011;1991;48.682;9.030;2023-02-10T01:22:58;33.47;;;17.97;;
3953;SDS011;1991;48.682;9.030;2023-02-10T01:25:23;32.13;;;17.23;;
3953;SDS011;1991;48.682;9.030;2023-02-10T01:27:49;27.50;;;16.13;;
3953;SDS011;1991;48.682;9.030;2023-02-10T01:30:14;29.83;;;16.43;;
3953;SDS011;1991;48.682;9.030;2023-02-10T01:32:40;30.27;;;16.63;;
3953;SDS011;1991;48.682;9.030;2023-02-10T01:35:06;28.57;;;16.30;;
3953;SDS011;1991;48.682;9.030;2023-02-10T01:37:32;33.03;;;16.97;;
3953;SDS011;1991;48.682;9.030;2023-02-10T01:40:01;31.57;;;16.70;;
3953;SDS011;1991;48.682;9.030;2023-02-10T01:42:27;30.23;;;16.80;;
3953;SDS011;1991;48.682;9.030;2023-02-10T01:47:18;35.07;;;17.50;;
3953;SDS011;1991;48.682;9.030;2023-02-10T01:49:47;29.57;;;16.03;;
3953;SDS011;1991;48.682;9.030;2023-02-10T01:52:20;28.57;;;16.37;;
3953;SDS011;1991;48.682;9.030;2023-02-10T01:54:59;30.57;;;16.40;;
3953;SDS011;1991;48.682;9.030;2023-02-10T01:57:30;30.37;;;16.07;;
3953;SDS011;1991;48.682;9.030;2023-02-10T01:59:57;30.07;;;16.63;;
3953;SDS011;1991;48.682;9.030;2023-02-10T02:02:25;30.17;;;17.23;;
3953;SDS011;1991;48.682;9.030;2023-02-10T02:04:52;33.70;;;16.93;;
3953;SDS011;1991;48.682;9.030;2023-02-10T02:07:25;29.73;;;16.67;;
3953;SDS011;1991;48.682;9.030;2023-02-10T02:09:54;32.57;;;17.10;;
3953;SDS011;1991;48.682;9.030;2023-02-10T02:12:26;34.73;;;18.17;;
3953;SDS011;1991;48.682;9.030;2023-02-10T02:35:20;30.77;;;18.50;;
3953;SDS011;1991;48.682;9.030;2023-02-10T02:37:51;33.07;;;17.80;;
3953;SDS011;1991;48.682;9.030;2023-02-10T02:40:18;34.70;;;18.60;;
3953;SDS011;1991;48.682;9.030;2023-02-10T02:42:44;34.13;;;19.60;;
3953;SDS011;1991;48.682;9.030;2023-02-10T02:45:20;37.60;;;18.83;;
3953;SDS011;1991;48.682;9.030;2023-02-10T02:48:20;37.80;;;18.00;;
3953;SDS011;1991;48.682;9.030;2023-02-10T03:01:47;35.30;;;19.13;;
3953;SDS011;1991;48.682;9.030;2023-02-10T03:04:19;32.50;;;18.87;;
3953;SDS011;1991;48.682;9.030;2023-02-10T03:06:45;42.20;;;19.83;;
3953;SDS011;1991;48.682;9.030;2023-02-10T03:09:10;36.27;;;19.03;;
3953;SDS011;1991;48.682;9.030;2023-02-10T03:11:36;37.33;;;18.40;;
3953;SDS011;1991;48.682;9.030;2023-02-10T03:14:02;39.87;;;19.57;;
3953;SDS011;1991;48.682;9.030;2023-02-10T03:16:27;41.80;;;20.93;;
3953;SDS011;1991;48.682;9.030;2023-02-10T03:18:53;38.93;;;19.63;;
3953;SDS011;1991;48.682;9.030;2023-02-10T03:21:19;34.67;;;19.80;;
3953;SDS011;1991;48.682;9.030;2023-02-10T03:23:44;33.60;;;19.50;;
3953;SDS011;1991;48.682;9.030;2023-02-10T03:26:10;40.60;;;18.50;;
3953;SDS011;1991;48.682;9.030;2023-02-10T03:28:36;36.87;;;20.07;;
3953;SDS011;1991;48.682;9.030;2023-02-10T03:31:05;38.53;;;21.07;;
3953;SDS011;1991;48.682;9.030;2023-02-10T03:33:32;34.60;;;18.80;;
3953;SDS011;1991;48.682;9.030;2023-02-10T03:35:58;32.87;;;19.20;;
3953;SDS011;1991;48.682;9.030;2023-02-10T03:38:24;35.47;;;19.80;;
3953;SDS011;1991;48.682;9.030;2023-02-10T03:40:51;37.93;;;20.37;;
3953;SDS011;1991;48.682;9.030;2023-02-10T03:43:17;37.17;;;20.13;;
3953;SDS011;1991;48.682;9.030;2023-02-10T03:45:43;38.03;;;19.10;;
3953;SDS011;1991;48.682;9.030;2023-02-10T03:48:09;37.23;;;19.77;;
3953;SDS011;1991;48.682;9.030;2023-02-10T03:50:34;38.30;;;19.93;;
3953;SDS011;1991;48.682;9.030;2023-02-10T03:53:00;38.93;;;19.30;;
3953;SDS011;1991;48.682;9.030;2023-02-10T03:55:26;33.30;;;18.47;;
3953;SDS011;1991;48.682;9.030;2023-02-10T03:57:52;35.23;;;18.33;;
3953;SDS011;1991;48.682;9.030;2023-02-10T04:00:17;38.63;;;18.53;;
3953;SDS011;1991;48.682;9.030;2023-02-10T04:02:43;30.70;;;17.63;;
3953;SDS011;1991;48.682;9.030;2023-02-10T04:05:09;34.27;;;19.67;;
3953;SDS011;1991;48.682;9.030;2023-02-10T04:07:35;34.50;;;18.63;;
3953;SDS011;1991;48.682;9.030;2023-02-10T04:10:00;34.37;;;19.80;;
3953;SDS011;1991;48.682;9.030;2023-02-10T04:12:26;35.57;;;18.70;;
3953;SDS011;1991;48.682;9.030;2023-02-10T04:14:52;37.23;;;19.07;;
3953;SDS011;1991;48.682;9.030;2023-02-10T04:17:17;33.63;;;19.30;;
3953;SDS011;1991;48.682;9.030;2023-02-10T04:19:43;33.73;;;18.20;;
3953;SDS011;1991;48.682;9.030;2023-02-10T04:22:08;32.70;;;18.40;;
3953;SDS011;1991;48.682;9.030;2023-02-10T04:24:34;32.63;;;18.73;;
3953;SDS011;1991;48.682;9.030;2023-02-10T04:27:00;32.03;;;17.43;;
3953;SDS011;1991;48.682;9.030;2023-02-10T04:29:25;31.37;;;18.90;;
3953;SDS011;1991;48.682;9.030;2023-02-10T04:31:51;32.17;;;17.43;;
3953;SDS011;1991;48.682;9.030;2023-02-10T04:34:16;36.20;;;18.23;;
3953;SDS011;1991;48.682;9.030;2023-02-10T04:36:42;33.87;;;18.27;;
3953;SDS011;1991;48.682;9.030;2023-02-10T04:39:07;32.30;;;17.83;;
3953;SDS011;1991;48.682;9.030;2023-02-10T04:41:33;32.70;;;19.33;;
3953;SDS011;1991;48.682;9.030;2023-02-10T04:43:58;32.10;;;17.13;;
3953;SDS011;1991;48.682;9.030;2023-02-10T04:46:24;33.37;;;18.87;;
3953;SDS011;1991;48.682;9.030;2023-02-10T04:48:50;33.87;;;18.00;;
3953;SDS011;1991;48.682;9.030;2023-02-10T04:51:15;32.40;;;17.97;;
3953;SDS011;1991;48.682;9.030;2023-02-10T04:53:41;32.43;;;17.80;;
3953;SDS011;1991;48.682;9.030;2023-02-10T04:56:08;36.90;;;19.07;;
3953;SDS011;1991;48.682;9.030;2023-02-10T04:58:34;33.37;;;17.47;;
3953;SDS011;1991;48.682;9.030;2023-02-10T05:01:00;30.07;;;17.63;;
3953;SDS011;1991;48.682;9.030;2023-02-10T05:03:26;34.53;;;17.73;;
3953;SDS011;1991;48.682;9.030;2023-02-10T05:05:51;33.40;;;17.33;;
3953;SDS011;1991;48.682;9.030;2023-02-10T05:08:18;31.40;;;17.67;;
3953;SDS011;1991;48.682;9.030;2023-02-10T05:10:51;28.33;;;17.93;;
3953;SDS011;1991;48.682;9.030;2023-02-10T05:13:18;35.37;;;18.00;;
3953;SDS011;1991;48.682;9.030;2023-02-10T05:15:44;33.53;;;17.90;;
3953;SDS011;1991;48.682;9.030;2023-02-10T05:18:11;32.77;;;17.97;;
3953;SDS011;1991;48.682;9.030;2023-02-10T05:20:36;35.00;;;18.33;;
3953;SDS011;1991;48.682;9.030;2023-02-10T05:23:02;32.53;;;16.93;;
3953;SDS011;1991;48.682;9.030;2023-02-10T05:25:27;31.23;;;17.87;;
3953;SDS011;1991;48.682;9.030;2023-02-10T05:27:53;31.83;;;17.20;;
3953;SDS011;1991;48.682;9.030;2023-02-10T05:30:19;31.90;;;16.60;;
3953;SDS011;1991;48.682;9.030;2023-02-10T05:32:44;28.43;;;15.93;;
3953;SDS011;1991;48.682;9.030;2023-02-10T05:35:10;29.47;;;17.07;;
3953;SDS011;1991;48.682;9.030;2023-02-10T05:37:37;30.53;;;17.53;;
3953;SDS011;1991;48.682;9.030;2023-02-10T05:40:03;31.33;;;17.53;;
3953;SDS011;1991;48.682;9.030;2023-02-10T05:42:30;34.40;;;17.63;;
3953;SDS011;1991;48.682;9.030;2023-02-10T05:44:56;29.43;;;16.10;;
3953;SDS011;1991;48.682;9.030;2023-02-10T05:47:21;29.40;;;16.90;;
3953;SDS011;1991;48.682;9.030;2023-02-10T05:49:47;32.20;;;17.07;;
3953;SDS011;1991;48.682;9.030;2023-02-10T05:52:12;31.60;;;16.90;;
3953;SDS011;1991;48.682;9.030;2023-02-10T05:54:38;31.73;;;17.47;;
3953;SDS011;1991;48.682;9.030;2023-02-10T05:57:05;36.07;;;17.03;;
3953;SDS011;1991;48.682;9.030;2023-02-10T05:59:31;30.30;;;17.00;;
3953;SDS011;1991;48.682;9.030;2023-02-10T06:01:57;30.63;;;17.13;;
3953;SDS011;1991;48.682;9.030;2023-02-10T06:04:22;29.53;;;16.90;;
3953;SDS011;1991;48.682;9.030;2023-02-10T06:06:48;34.87;;;18.90;;
3953;SDS011;1991;48.682;9.030;2023-02-10T06:09:14;32.27;;;17.40;;
3953;SDS011;1991;48.682;9.030;2023-02-10T06:11:39;28.87;;;17.00;;
3953;SDS011;1991;48.682;9.030;2023-02-10T06:14:05;31.70;;;16.73;;
3953;SDS011;1991;48.682;9.030;2023-02-10T06:16:30;27.77;;;16.40;;
3953;SDS011;1991;48.682;9.030;2023-02-10T06:18:56;30.10;;;17.10;;
3953;SDS011;1991;48.682;9.030;2023-02-10T06:21:22;31.77;;;17.23;;
3953;SDS011;1991;48.682;9.030;2023-02-10T06:23:48;31.93;;;17.33;;
3953;SDS011;1991;48.682;9.030;2023-02-10T06:26:14;34.70;;;17.57;;
3953;SDS011;1991;48.682;9.030;2023-02-10T06:28:39;31.53;;;16.50;;
3953;SDS011;1991;48.682;9.030;2023-02-10T06:31:05;29.47;;;16.70;;
3953;SDS011;1991;48.682;9.030;2023-02-10T06:33:32;30.97;;;16.73;;
3953;SDS011;1991;48.682;9.030;2023-02-10T06:36:00;31.60;;;17.60;;
3953;SDS011;1991;48.682;9.030;2023-02-10T06:38:30;38.90;;;18.13;;
3953;SDS011;1991;48.682;9.030;2023-02-10T06:40:58;33.83;;;17.20;;
3953;SDS011;1991;48.682;9.030;2023-02-10T06:43:24;33.73;;;18.13;;
3953;SDS011;1991;48.682;9.030;2023-02-10T06:45:49;30.70;;;17.43;;
3953;SDS011;1991;48.682;9.030;2023-02-10T06:48:15;32.27;;;17.43;;
3953;SDS011;1991;48.682;9.030;2023-02-10T06:50:40;31.23;;;17.00;;
3953;SDS011;1991;48.682;9.030;2023-02-10T06:53:06;33.50;;;17.37;;
3953;SDS011;1991;48.682;9.030;2023-02-10T06:55:31;35.33;;;17.77;;
3953;SDS011;1991;48.682;9.030;2023-02-10T06:57:58;36.77;;;18.47;;
3953;SDS011;1991;48.682;9.030;2023-02-10T07:00:24;31.07;;;16.17;;
3953;SDS011;1991;48.682;9.030;2023-02-10T07:02:50;35.30;;;17.97;;
3953;SDS011;1991;48.682;9.030;2023-02-10T07:05:15;33.90;;;17.77;;
3953;SDS011;1991;48.682;9.030;2023-02-10T07:07:41;31.57;;;17.13;;
3953;SDS011;1991;48.682;9.030;2023-02-10T07:10:07;35.80;;;17.77;;
3953;SDS011;1991;48.682;9.030;2023-02-10T07:12:33;31.13;;;17.07;;
3953;SDS011;1991;48.682;9.030;2023-02-10T07:14:58;28.43;;;16.97;;
3953;SDS011;1991;48.682;9.030;2023-02-10T07:17:24;31.60;;;16.93;;
3953;SDS011;1991;48.682;9.030;2023-02-10T07:19:50;36.37;;;17.50;;
3953;SDS011;1991;48.682;9.030;2023-02-10T07:22:15;29.63;;;16.37;;
3953;SDS011;1991;48.682;9.030;2023-02-10T07:24:41;31.57;;;16.70;;
3953;SDS011;1991;48.682;9.030;2023-02-10T07:27:06;32.17;;;16.93;;
3953;SDS011;1991;48.682;9.030;2023-02-10T07:29:32;33.30;;;18.13;;
3953;SDS011;1991;48.682;9.030;2023-02-10T07:31:57;29.43;;;17.40;;
3953;SDS011;1991;48.682;9.030;2023-02-10T07:34:23;31.60;;;18.20;;
3953;SDS011;1991;48.682;9.030;2023-02-10T07:36:50;30.30;;;18.50;;
3953;SDS011;1991;48.682;9.030;2023-02-10T07:39:19;40.93;;;19.67;;
3953;SDS011;1991;48.682;9.030;2023-02-10T07:41:45;35.40;;;19.03;;
3953;SDS011;1991;48.682;9.030;2023-02-10T07:44:11;33.97;;;19.07;;
3953;SDS011;1991;48.682;9.030;2023-02-10T07:46:37;34.23;;;18.23;;
3953;SDS011;1991;48.682;9.030;2023-02-10T07:49:02;32.77;;;18.10;;
3953;SDS011;1991;48.682;9.030;2023-02-10T07:51:28;41.70;;;19.77;;
3953;SDS011;1991;48.682;9.030;2023-02-10T07:53:53;33.83;;;18.60;;
3953;SDS011;1991;48.682;9.030;2023-02-10T07:56:19;42.13;;;22.47;;
3953;SDS011;1991;48.682;9.030;2023-02-10T07:58:44;47.00;;;22.30;;
3953;SDS011;1991;48.682;9.030;2023-02-10T08:01:10;56.27;;;24.83;;
3953;SDS011;1991;48.682;9.030;2023-02-10T08:03:36;52.80;;;23.93;;
3953;SDS011;1991;48.682;9.030;2023-02-10T08:06:02;46.50;;;22.07;;
3953;SDS011;1991;48.682;9.030;2023-02-10T08:08:28;32.00;;;19.07;;
3953;SDS011;1991;48.682;9.030;2023-02-10T08:10:54;32.43;;;19.10;;
3953;SDS011;1991;48.682;9.030;2023-02-10T08:13:20;32.47;;;18.80;;
3953;SDS011;1991;48.682;9.030;2023-02-10T08:15:46;33.13;;;19.03;;
3953;SDS011;1991;48.682;9.030;2023-02-10T08:18:12;30.67;;;18.67;;
3953;SDS011;1991;48.682;9.030;2023-02-10T08:20:37;28.67;;;17.60;;
3953;SDS011;1991;48.682;9.030;2023-02-10T08:23:05;27.80;;;17.33;;
3953;SDS011;1991;48.682;9.030;2023-02-10T08:25:31;29.07;;;17.30;;
3953;SDS011;1991;48.682;9.030;2023-02-10T08:27:57;31.40;;;17.13;;
3953;SDS011;1991;48.682;9.030;2023-02-10T08:30:23;29.67;;;17.47;;
3953;SDS011;1991;48.682;9.030;2023-02-10T08:32:49;28.23;;;17.27;;
3953;SDS011;1991;48.682;9.030;2023-02-10T08:35:15;30.83;;;18.27;;
3953;SDS011;1991;48.682;9.030;2023-02-10T08:37:41;28.30;;;17.30;;
3953;SDS011;1991;48.682;9.030;2023-02-10T08:40:06;27.57;;;17.10;;
3953;SDS011;1991;48.682;9.030;2023-02-10T08:42:32;32.27;;;17.47;;
3953;SDS011;1991;48.682;9.030;2023-02-10T08:44:58;29.30;;;17.30;;
3953;SDS011;1991;48.682;9.030;2023-02-10T08:47:24;27.33;;;16.33;;
3953;SDS011;1991;48.682;9.030;2023-02-10T08:49:49;28.33;;;17.40;;
3953;SDS011;1991;48.682;9.030;2023-02-10T08:52:15;26.07;;;17.17;;
3953;SDS011;1991;48.682;9.030;2023-02-10T08:54:41;28.13;;;17.90;;
3953;SDS011;1991;48.682;9.030;2023-02-10T08:57:07;27.47;;;17.67;;
3953;SDS011;1991;48.682;9.030;2023-02-10T08:59:33;27.77;;;17.67;;
3953;SDS011;1991;48.682;9.030;2023-02-10T09:01:58;25.03;;;17.00;;
3953;SDS011;1991;48.682;9.030;2023-02-10T09:04:24;29.20;;;17.93;;
3953;SDS011;1991;48.682;9.030;2023-02-10T09:06:50;28.00;;;17.13;;
3953;SDS011;1991;48.682;9.030;2023-02-10T09:09:17;26.03;;;17.83;;
3953;SDS011;1991;48.682;9.030;2023-02-10T09:11:47;25.90;;;16.60;;
3953;SDS011;1991;48.682;9.030;2023-02-10T09:14:12;27.80;;;17.03;;
3953;SDS011;1991;48.682;9.030;2023-02-10T09:16:38;27.60;;;16.90;;
3953;SDS011;1991;48.682;9.030;2023-02-10T09:19:04;26.07;;;17.50;;
3953;SDS011;1991;48.682;9.030;2023-02-10T09:21:30;29.47;;;17.63;;
3953;SDS011;1991;48.682;9.030;2023-02-10T09:23:56;26.37;;;17.93;;
3953;SDS011;1991;48.682;9.030;2023-02-10T09:26:21;25.63;;;16.93;;
3953;SDS011;1991;48.682;9.030;2023-02-10T09:28:47;25.10;;;16.97;;
3953;SDS011;1991;48.682;9.030;2023-02-10T09:31:13;27.90;;;17.43;;
3953;SDS011;1991;48.682;9.030;2023-02-10T09:33:40;24.10;;;17.57;;
3953;SDS011;1991;48.682;9.030;2023-02-10T09:36:09;29.33;;;18.17;;
3953;SDS011;1991;48.682;9.030;2023-02-10T09:38:44;26.00;;;18.67;;
3953;SDS011;1991;48.682;9.030;2023-02-10T09:55:18;25.35;;;20.35;;
3953;SDS011;1991;48.682;9.030;2023-02-10T09:57:52;22.00;;;18.95;;
3953;SDS011;1991;48.682;9.030;2023-02-10T10:00:24;22.77;;;20.17;;
3953;SDS011;1991;48.682;9.030;2023-02-10T10:02:54;26.00;;;20.58;;
3953;SDS011;1991;48.682;9.030;2023-02-10T10:05:35;24.38;;;20.52;;
3953;SDS011;1991;48.682;9.030;2023-02-10T10:08:03;23.55;;;20.88;;
3953;SDS011;1991;48.682;9.030;2023-02-10T10:10:37;25.33;;;21.17;;
3953;SDS011;1991;48.682;9.030;2023-02-10T10:13:13;21.67;;;19.45;;
3953;SDS011;1991;48.682;9.030;2023-02-10T10:15:49;23.48;;;19.75;;
3953;SDS011;1991;48.682;9.030;2023-02-10T10:18:45;22.25;;;19.95;;
3953;SDS011;1991;48.682;9.030;2023-02-10T10:21:27;22.90;;;20.50;;
3953;SDS011;1991;48.682;9.030;2023-02-10T10:24:12;22.70;;;20.13;;
3953;SDS011;1991;48.682;9.030;2023-02-10T10:29:39;20.98;;;18.88;;
3953;SDS011;1991;48.682;9.030;2023-02-10T10:34:56;21.83;;;19.27;;
3953;SDS011;1991;48.682;9.030;2023-02-10T10:37:23;20.52;;;18.50;;
3953;SDS011;1991;48.682;9.030;2023-02-10T10:40:00;19.42;;;17.52;;
3953;SDS011;1991;48.682;9.030;2023-02-10T10:45:40;19.45;;;17.55;;
3953;SDS011;1991;48.682;9.030;2023-02-10T10:48:14;21.15;;;17.42;;
3953;SDS011;1991;48.682;9.030;2023-02-10T10:50:43;18.60;;;16.77;;
3953;SDS011;1991;48.682;9.030;2023-02-10T10:53:15;20.50;;;18.27;;
3953;SDS011;1991;48.682;9.030;2023-02-10T10:55:46;20.25;;;18.25;;
3953;SDS011;1991;48.682;9.030;2023-02-10T10:58:23;18.83;;;17.08;;
3953;SDS011;1991;48.682;9.030;2023-02-10T11:00:56;19.90;;;18.02;;
3953;SDS011;1991;48.682;9.030;2023-02-10T11:03:23;20.55;;;18.60;;
3953;SDS011;1991;48.682;9.030;2023-02-10T11:05:59;19.65;;;17.67;;
3953;SDS011;1991;48.682;9.030;2023-02-10T11:08:33;20.13;;;18.00;;
3953;SDS011;1991;48.682;9.030;2023-02-10T11:11:12;20.02;;;18.00;;
3953;SDS011;1991;48.682;9.030;2023-02-10T11:13:40;20.48;;;18.48;;
3953;SDS011;1991;48.682;9.030;2023-02-10T11:16:18;19.73;;;17.48;;
3953;SDS011;1991;48.682;9.030;2023-02-10T11:19:19;20.35;;;18.35;;
3953;SDS011;1991;48.682;9.030;2023-02-10T11:21:43;19.38;;;17.60;;
3953;SDS011;1991;48.682;9.030;2023-02-10T11:27:05;19.13;;;17.27;;
3953;SDS011;1991;48.682;9.030;2023-02-10T11:29:45;19.10;;;17.13;;
3953;SDS011;1991;48.682;9.030;2023-02-10T11:32:19;19.17;;;17.27;;
3953;SDS011;1991;48.682;9.030;2023-02-10T11:34:50;18.55;;;16.85;;
3953;SDS011;1991;48.682;9.030;2023-02-10T11:37:37;16.90;;;15.38;;
3953;SDS011;1991;48.682;9.030;2023-02-10T11:40:05;19.10;;;17.30;;
3953;SDS011;1991;48.682;9.030;2023-02-10T11:42:45;18.70;;;17.00;;
3953;SDS011;1991;48.682;9.030;2023-02-10T11:45:17;19.75;;;17.77;;
3953;SDS011;1991;48.682;9.030;2023-02-10T11:48:00;18.73;;;17.02;;
3953;SDS011;1991;48.682;9.030;2023-02-10T11:50:29;17.25;;;15.65;;
3953;SDS011;1991;48.682;9.030;2023-02-10T11:52:57;17.90;;;16.30;;
3953;SDS011;1991;48.682;9.030;2023-02-10T11:55:25;17.63;;;16.08;;
3953;SDS011;1991;48.682;9.030;2023-02-10T12:04:01;18.83;;;16.85;;
3953;SDS011;1991;48.682;9.030;2023-02-10T12:06:47;18.48;;;16.77;;
3953;SDS011;1991;48.682;9.030;2023-02-10T12:24:38;19.67;;;17.92;;
3953;SDS011;1991;48.682;9.030;2023-02-10T12:33:06;21.17;;;17.92;;
3953;SDS011;1991;48.682;9.030;2023-02-10T12:35:58;20.65;;;18.73;;
3953;SDS011;1991;48.682;9.030;2023-02-10T12:38:41;19.92;;;18.00;;
3953;SDS011;1991;48.682;9.030;2023-02-10T12:51:59;20.23;;;18.35;;
3953;SDS011;1991;48.682;9.030;2023-02-10T12:54:41;18.27;;;16.38;;
3953;SDS011;1991;48.682;9.030;2023-02-10T12:57:24;22.23;;;16.63;;
3953;SDS011;1991;48.682;9.030;2023-02-10T13:00:12;17.67;;;16.02;;
3953;SDS011;1991;48.682;9.030;2023-02-10T13:03:05;16.52;;;15.02;;
3953;SDS011;1991;48.682;9.030;2023-02-10T13:05:39;18.63;;;16.70;;
3953;SDS011;1991;48.682;9.030;2023-02-10T13:08:21;17.23;;;15.73;;
3953;SDS011;1991;48.682;9.030;2023-02-10T13:10:53;15.48;;;13.98;;
3953;SDS011;1991;48.682;9.030;2023-02-10T13:13:24;18.17;;;15.65;;
3953;SDS011;1991;48.682;9.030;2023-02-10T13:24:31;17.77;;;16.08;;
3953;SDS011;1991;48.682;9.030;2023-02-10T13:34:58;17.90;;;16.20;;
3953;SDS011;1991;48.682;9.030;2023-02-10T13:40:21;17.23;;;15.63;;
3953;SDS011;1991;48.682;9.030;2023-02-10T13:42:53;16.98;;;15.38;;
3953;SDS011;1991;48.682;9.030;2023-02-10T13:45:25;16.83;;;15.02;;
3953;SDS011;1991;48.682;9.030;2023-02-10T13:48:05;18.60;;;16.70;;
3953;SDS011;1991;48.682;9.030;2023-02-10T13:50:47;17.27;;;15.75;;
3953;SDS011;1991;48.682;9.030;2023-02-10T13:59:02;17.83;;;15.73;;
3953;SDS011;1991;48.682;9.030;2023-02-10T14:01:41;17.58;;;15.80;;
3953;SDS011;1991;48.682;9.030;2023-02-10T14:06:45;17.20;;;15.68;;
3953;SDS011;1991;48.682;9.030;2023-02-10T14:11:53;16.92;;;15.27;;
3953;SDS011;1991;48.682;9.030;2023-02-10T14:19:40;20.17;;;18.10;;
3953;SDS011;1991;48.682;9.030;2023-02-10T14:22:22;22.20;;;18.98;;
3953;SDS011;1991;48.682;9.030;2023-02-10T14:24:50;19.70;;;17.77;;
3953;SDS011;1991;48.682;9.030;2023-02-10T14:27:20;22.40;;;18.85;;
3953;SDS011;1991;48.682;9.030;2023-02-10T14:29:52;19.85;;;17.85;;
3953;SDS011;1991;48.682;9.030;2023-02-10T14:32:18;20.02;;;18.02;;
3953;SDS011;1991;48.682;9.030;2023-02-10T14:37:23;18.80;;;16.88;;
3953;SDS011;1991;48.682;9.030;2023-02-10T14:39:56;20.83;;;18.58;;
3953;SDS011;1991;48.682;9.030;2023-02-10T14:42:24;20.55;;;17.25;;
3953;SDS011;1991;48.682;9.030;2023-02-10T14:44:53;18.23;;;16.42;;
3953;SDS011;1991;48.682;9.030;2023-02-10T14:47:22;21.17;;;18.50;;
3953;SDS011;1991;48.682;9.030;2023-02-10T14:49:54;19.60;;;17.50;;
3953;SDS011;1991;48.682;9.030;2023-02-10T14:52:21;19.15;;;17.15;;
3953;SDS011;1991;48.682;9.030;2023-02-10T14:54:52;21.63;;;18.50;;
3953;SDS011;1991;48.682;9.030;2023-02-10T14:57:22;19.55;;;17.20;;
3953;SDS011;1991;48.682;9.030;2023-02-10T14:59:53;21.17;;;18.63;;
3953;SDS011;1991;48.682;9.030;2023-02-10T15:02:24;21.48;;;17.65;;
3953;SDS011;1991;48.682;9.030;2023-02-10T15:04:53;19.02;;;16.45;;
3953;SDS011;1991;48.682;9.030;2023-02-10T15:07:30;19.85;;;17.65;;
3953;SDS011;1991;48.682;9.030;2023-02-10T15:10:13;21.05;;;17.23;;
3953;SDS011;1991;48.682;9.030;2023-02-10T15:12:42;20.30;;;17.92;;
3953;SDS011;1991;48.682;9.030;2023-02-10T15:17:41;23.98;;;18.17;;
3953;SDS011;1991;48.682;9.030;2023-02-10T15:22:43;22.40;;;17.92;;
3953;SDS011;1991;48.682;9.030;2023-02-10T15:30:40;22.00;;;16.70;;
3953;SDS011;1991;48.682;9.030;2023-02-10T15:33:10;23.85;;;17.98;;
3953;SDS011;1991;48.682;9.030;2023-02-10T15:35:54;19.88;;;17.05;;
3953;SDS011;1991;48.682;9.030;2023-02-10T15:38:20;23.27;;;17.30;;
3953;SDS011;1991;48.682;9.030;2023-02-10T15:40:56;19.90;;;16.67;;
3953;SDS011;1991;48.682;9.030;2023-02-10T15:43:27;23.42;;;17.35;;
3953;SDS011;1991;48.682;9.030;2023-02-10T15:48:40;24.05;;;16.63;;
3953;SDS011;1991;48.682;9.030;2023-02-10T15:51:06;25.33;;;17.95;;
3953;SDS011;1991;48.682;9.030;2023-02-10T15:53:44;23.35;;;17.83;;
3953;SDS011;1991;48.682;9.030;2023-02-10T15:56:10;25.60;;;17.20;;
3953;SDS011;1991;48.682;9.030;2023-02-10T15:58:35;22.77;;;17.40;;
3953;SDS011;1991;48.682;9.030;2023-02-10T16:01:01;23.42;;;17.58;;
3953;SDS011;1991;48.682;9.030;2023-02-10T16:03:26;23.48;;;18.27;;
3953;SDS011;1991;48.682;9.030;2023-02-10T16:05:52;23.05;;;17.90;;
3953;SDS011;1991;48.682;9.030;2023-02-10T16:08:24;25.95;;;17.98;;
3953;SDS011;1991;48.682;9.030;2023-02-10T16:10:50;21.85;;;17.00;;
3953;SDS011;1991;48.682;9.030;2023-02-10T16:13:15;26.33;;;18.17;;
3953;SDS011;1991;48.682;9.030;2023-02-10T16:15:42;25.90;;;17.73;;
3953;SDS011;1991;48.682;9.030;2023-02-10T16:18:11;30.90;;;18.20;;
3953;SDS011;1991;48.682;9.030;2023-02-10T16:20:38;30.97;;;17.67;;
3953;SDS011;1991;48.682;9.030;2023-02-10T16:23:08;35.80;;;17.93;;
3953;SDS011;1991;48.682;9.030;2023-02-10T16:25:37;40.80;;;18.60;;
3953;SDS011;1991;48.682;9.030;2023-02-10T16:28:02;43.97;;;18.47;;
3953;SDS011;1991;48.682;9.030;2023-02-10T16:30:28;38.40;;;17.33;;
3953;SDS011;1991;48.682;9.030;2023-02-10T16:32:54;27.73;;;16.87;;
3953;SDS011;1991;48.682;9.030;2023-02-10T16:35:21;24.37;;;15.87;;
3953;SDS011;1991;48.682;9.030;2023-02-10T16:37:48;26.37;;;16.83;;
3953;SDS011;1991;48.682;9.030;2023-02-10T16:40:16;29.27;;;17.10;;
3953;SDS011;1991;48.682;9.030;2023-02-10T16:42:46;34.50;;;16.83;;
3953;SDS011;1991;48.682;9.030;2023-02-10T16:45:12;40.13;;;17.27;;
3953;SDS011;1991;48.682;9.030;2023-02-10T16:47:38;54.07;;;18.33;;
3953;SDS011;1991;48.682;9.030;2023-02-10T16:50:04;60.93;;;19.43;;
3953;SDS011;1991;48.682;9.030;2023-02-10T16:52:30;35.27;;;18.33;;
3953;SDS011;1991;48.682;9.030;2023-02-10T16:54:56;45.13;;;18.10;;
3953;SDS011;1991;48.682;9.030;2023-02-10T16:57:21;39.70;;;18.00;;
3953;SDS011;1991;48.682;9.030;2023-02-10T16:59:47;46.53;;;18.27;;
3953;SDS011;1991;48.682;9.030;2023-02-10T17:02:14;46.13;;;18.37;;
3953;SDS011;1991;48.682;9.030;2023-02-10T17:04:39;37.00;;;17.60;;
3953;SDS011;1991;48.682;9.030;2023-02-10T17:07:05;35.07;;;18.37;;
3953;SDS011;1991;48.682;9.030;2023-02-10T17:09:31;34.13;;;20.27;;
3953;SDS011;1991;48.682;9.030;2023-02-10T17:11:57;35.30;;;19.13;;
3953;SDS011;1991;48.682;9.030;2023-02-10T17:14:22;37.17;;;19.53;;
3953;SDS011;1991;48.682;9.030;2023-02-10T17:16:49;30.90;;;18.57;;
3953;SDS011;1991;48.682;9.030;2023-02-10T17:19:17;30.03;;;19.93;;
3953;SDS011;1991;48.682;9.030;2023-02-10T17:21:46;41.67;;;22.50;;
3953;SDS011;1991;48.682;9.030;2023-02-10T17:24:11;38.73;;;20.60;;